createdAt,value
2022-11-26T00:01:29.356Z,6.07
2022-11-26T00:04:03.351Z,16.05
2022-11-26T00:06:40.065Z,13.55
2022-11-26T00:09:15.198Z,10.90
2022-11-26T00:11:43.425Z,12.95
2022-11-26T00:14:16.002Z,8.20
2022-11-26T00:16:45.109Z,9.95
2022-11-26T00:19:13.554Z,10.57
2022-11-26T00:21:42.706Z,10.98
2022-11-26T00:24:27.961Z,13.57
2022-11-26T00:29:25.333Z,8.63
2022-11-26T00:31:53.821Z,10.30
2022-11-26T00:34:22.293Z,7.47
2022-11-26T00:36:50.654Z,9.05
2022-11-26T00:39:24.335Z,9.75
2022-11-26T00:41:53.358Z,6.05
2022-11-26T00:44:24.912Z,9.90
2022-11-26T00:46:53.667Z,4.85
2022-11-26T00:49:21.814Z,8.75
2022-11-26T00:51:49.979Z,15.13
2022-11-26T00:54:19.602Z,11.30
2022-11-26T00:56:49.078Z,8.15
2022-11-26T00:59:22.305Z,7.47
2022-11-26T01:01:51.030Z,6.72
2022-11-26T01:04:19.083Z,10.63
2022-11-26T01:06:47.485Z,9.23
2022-11-26T01:09:21.324Z,8.63
2022-11-26T01:11:53.783Z,8.25
2022-11-26T01:14:23.434Z,10.60
2022-11-26T01:16:53.496Z,10.13
2022-11-26T01:19:21.612Z,7.37
2022-11-26T01:21:50.395Z,8.80
2022-11-26T01:24:18.727Z,7.28
2022-11-26T01:26:46.806Z,8.45
2022-11-26T01:29:19.531Z,13.52
2022-11-26T01:31:48.071Z,6.60
2022-11-26T01:34:16.748Z,9.23
2022-11-26T01:36:44.966Z,4.47
2022-11-26T01:39:18.498Z,5.43
2022-11-26T01:41:53.521Z,8.88
2022-11-26T01:44:27.487Z,6.57
2022-11-26T01:46:57.369Z,10.32
2022-11-26T01:49:29.721Z,5.47
2022-11-26T01:52:11.680Z,10.48
2022-11-26T01:54:43.364Z,4.57
2022-11-26T01:57:30.230Z,6.68
2022-11-26T02:00:01.560Z,4.90
2022-11-26T02:02:30.310Z,9.10
2022-11-26T02:05:07.758Z,5.25
2022-11-26T02:07:36.873Z,10.27
2022-11-26T02:10:05.955Z,8.38
2022-11-26T02:12:34.659Z,6.30
2022-11-26T02:15:02.945Z,5.07
2022-11-26T02:17:40.015Z,6.70
2022-11-26T02:20:20.878Z,11.10
2022-11-26T02:23:13.945Z,9.80
2022-11-26T02:26:03.166Z,18.12
2022-11-26T02:29:03.715Z,8.95
2022-11-26T02:31:56.123Z,6.20
2022-11-26T02:34:37.946Z,7.30
2022-11-26T02:37:18.063Z,7.80
2022-11-26T02:39:47.033Z,11.70
2022-11-26T02:42:27.902Z,4.60
2022-11-26T02:45:02.083Z,5.20
2022-11-26T02:47:32.757Z,4.37
2022-11-26T02:50:08.213Z,4.32
2022-11-26T02:52:40.717Z,6.65
2022-11-26T02:55:13.201Z,5.43
2022-11-26T02:57:49.215Z,7.65
2022-11-26T03:00:18.880Z,7.18
2022-11-26T03:02:53.858Z,3.30
2022-11-26T03:05:23.011Z,6.20
2022-11-26T03:07:54.270Z,8.80
2022-11-26T03:10:30.605Z,7.82
2022-11-26T03:12:59.274Z,3.70
2022-11-26T03:15:27.542Z,6.00
2022-11-26T03:17:56.111Z,7.05
2022-11-26T03:20:24.616Z,4.37
2022-11-26T03:22:53.081Z,3.53
2022-11-26T03:25:21.306Z,7.53
2022-11-26T03:27:49.812Z,11.27
2022-11-26T03:30:19.869Z,6.57
2022-11-26T03:32:48.105Z,5.35
2022-11-26T03:35:16.234Z,5.53
2022-11-26T03:37:44.628Z,5.45
2022-11-26T03:40:13.037Z,4.60
2022-11-26T03:42:41.252Z,7.72
2022-11-26T03:45:10.211Z,5.72
2022-11-26T03:47:39.250Z,6.85
2022-11-26T03:50:07.880Z,9.05
2022-11-26T03:52:36.552Z,4.62
2022-11-26T03:55:04.812Z,5.15
2022-11-26T03:57:33.062Z,4.20
2022-11-26T04:00:01.482Z,4.82
2022-11-26T04:02:33.625Z,8.18
2022-11-26T04:05:02.239Z,3.75
2022-11-26T04:07:30.460Z,5.07
2022-11-26T04:09:59.699Z,10.15
2022-11-26T04:12:28.015Z,4.85
2022-11-26T04:14:56.029Z,3.12
2022-11-26T04:17:24.287Z,5.47
2022-11-26T04:19:54.123Z,5.25
2022-11-26T04:22:22.226Z,4.85
2022-11-26T04:24:52.452Z,7.03
2022-11-26T04:27:20.994Z,4.05
2022-11-26T04:29:49.061Z,4.07
2022-11-26T04:32:17.304Z,5.62
2022-11-26T04:34:45.645Z,6.35
2022-11-26T04:37:13.648Z,8.05
2022-11-26T04:39:42.160Z,4.15
2022-11-26T04:42:10.540Z,7.47
2022-11-26T04:44:38.739Z,6.37
2022-11-26T04:47:07.423Z,4.82
2022-11-26T04:49:35.893Z,4.22
2022-11-26T04:52:04.103Z,4.65
2022-11-26T04:54:32.378Z,3.45
2022-11-26T04:57:00.832Z,4.47
2022-11-26T04:59:29.130Z,4.95
2022-11-26T05:01:59.416Z,3.87
2022-11-26T05:04:28.635Z,4.93
2022-11-26T05:06:56.724Z,3.45
2022-11-26T05:09:25.094Z,4.97
2022-11-26T05:11:53.418Z,4.53
2022-11-26T05:14:21.534Z,5.55
2022-11-26T05:16:49.855Z,3.70
2022-11-26T05:19:18.354Z,4.40
2022-11-26T05:21:46.483Z,9.75
2022-11-26T05:24:14.653Z,4.72
2022-11-26T05:26:42.967Z,6.18
2022-11-26T05:29:10.973Z,5.95
2022-11-26T05:31:39.110Z,7.95
2022-11-26T05:34:07.451Z,8.13
2022-11-26T05:36:35.500Z,2.83
2022-11-26T05:39:04.520Z,5.47
2022-11-26T05:41:32.908Z,8.52
2022-11-26T05:44:01.595Z,5.55
2022-11-26T05:46:29.831Z,6.45
2022-11-26T05:48:58.429Z,10.15
2022-11-26T05:51:26.486Z,4.68
2022-11-26T05:53:54.566Z,15.68
2022-11-26T05:56:23.015Z,8.07
2022-11-26T05:58:51.662Z,3.28
2022-11-26T06:01:19.924Z,4.78
2022-11-26T06:03:48.328Z,7.68
2022-11-26T06:06:16.729Z,4.35
2022-11-26T06:08:45.095Z,4.95
2022-11-26T06:11:13.706Z,10.18
2022-11-26T06:13:41.738Z,3.75
2022-11-26T06:16:10.447Z,3.85
2022-11-26T06:18:39.707Z,2.70
2022-11-26T06:21:08.611Z,3.20
2022-11-26T06:23:36.777Z,5.40
2022-11-26T06:26:12.516Z,3.22
2022-11-26T06:28:40.769Z,5.03
2022-11-26T06:31:10.312Z,8.27
2022-11-26T06:33:38.426Z,5.97
2022-11-26T06:36:06.871Z,6.70
2022-11-26T06:38:35.233Z,1.50
2022-11-26T06:41:06.333Z,3.72
2022-11-26T06:43:35.561Z,4.22
2022-11-26T06:46:09.854Z,3.22
2022-11-26T06:48:39.386Z,9.05
2022-11-26T06:51:13.749Z,6.00
2022-11-26T06:53:42.407Z,4.43
2022-11-26T06:56:17.996Z,3.83
2022-11-26T06:58:54.254Z,2.95
2022-11-26T07:01:25.422Z,5.30
2022-11-26T07:03:55.076Z,3.33
2022-11-26T07:06:25.993Z,3.35
2022-11-26T07:08:56.587Z,3.60
2022-11-26T07:11:27.116Z,3.00
2022-11-26T07:13:57.325Z,1.60
2022-11-26T07:16:25.674Z,5.62
2022-11-26T07:19:02.236Z,2.60
2022-11-26T07:21:31.927Z,4.72
2022-11-26T07:24:00.092Z,2.62
2022-11-26T07:26:28.443Z,5.18
2022-11-26T07:28:57.073Z,4.28
2022-11-26T07:31:25.673Z,5.20
2022-11-26T07:33:54.007Z,4.28
2022-11-26T07:36:25.164Z,4.65
2022-11-26T07:38:55.498Z,7.87
2022-11-26T07:41:26.131Z,5.25
2022-11-26T07:43:54.854Z,5.75
2022-11-26T07:46:25.598Z,4.85
2022-11-26T07:48:57.442Z,5.03
2022-11-26T07:51:30.989Z,8.00
2022-11-26T07:54:04.877Z,9.30
2022-11-26T07:56:33.424Z,5.12
2022-11-26T07:59:02.283Z,3.47
2022-11-26T08:01:31.462Z,11.35
2022-11-26T08:04:03.420Z,5.15
2022-11-26T08:06:33.261Z,7.25
2022-11-26T08:09:02.769Z,8.48
2022-11-26T08:11:32.902Z,7.40
2022-11-26T08:14:10.220Z,4.43
2022-11-26T08:16:39.021Z,7.47
2022-11-26T08:19:12.436Z,4.90
2022-11-26T08:21:41.271Z,5.18
2022-11-26T08:24:14.507Z,9.82
2022-11-26T08:26:44.628Z,7.47
2022-11-26T08:29:14.047Z,4.50
2022-11-26T08:31:46.225Z,4.93
2022-11-26T08:34:16.224Z,6.03
2022-11-26T08:36:45.454Z,6.35
2022-11-26T08:39:17.264Z,4.87
2022-11-26T08:41:51.644Z,6.37
2022-11-26T08:44:20.956Z,5.60
2022-11-26T08:46:49.642Z,6.90
2022-11-26T08:49:17.761Z,8.82
2022-11-26T08:51:46.009Z,6.80
2022-11-26T08:54:15.042Z,4.68
2022-11-26T08:56:43.097Z,8.63
2022-11-26T08:59:11.130Z,6.70
2022-11-26T09:01:40.367Z,5.72
2022-11-26T09:04:08.565Z,5.15
2022-11-26T09:06:37.119Z,8.10
2022-11-26T09:09:15.786Z,6.07
2022-11-26T09:11:54.368Z,3.47
2022-11-26T09:14:27.160Z,4.15
2022-11-26T09:16:56.583Z,5.62
2022-11-26T09:19:25.989Z,6.50
2022-11-26T09:21:54.161Z,4.95
2022-11-26T09:24:23.827Z,7.45
2022-11-26T09:26:52.553Z,5.70
2022-11-26T09:29:23.024Z,3.65
2022-11-26T09:34:40.647Z,3.58
2022-11-26T09:37:09.407Z,6.90
2022-11-26T09:39:37.447Z,8.90
2022-11-26T09:42:12.937Z,12.98
2022-11-26T09:44:59.086Z,6.68
2022-11-26T09:47:32.111Z,9.50
2022-11-26T09:50:06.268Z,10.02
2022-11-26T09:52:48.211Z,4.77
2022-11-26T09:55:22.385Z,8.23
2022-11-26T09:58:29.143Z,5.40
2022-11-26T10:01:04.092Z,6.70
2022-11-26T10:03:38.102Z,10.55
2022-11-26T10:06:10.136Z,8.65
2022-11-26T10:09:09.402Z,7.47
2022-11-26T10:11:58.533Z,5.30
2022-11-26T10:14:36.170Z,7.00
2022-11-26T10:17:07.171Z,6.65
2022-11-26T10:19:59.974Z,7.55
2022-11-26T10:22:40.514Z,7.50
2022-11-26T10:25:20.916Z,14.63
2022-11-26T10:27:54.532Z,5.20
2022-11-26T10:30:26.788Z,6.87
2022-11-26T10:32:59.664Z,5.85
2022-11-26T10:35:30.300Z,10.65
2022-11-26T10:37:58.968Z,8.05
2022-11-26T10:40:32.445Z,17.15
2022-11-26T10:43:09.490Z,15.18
2022-11-26T10:45:42.561Z,10.98
2022-11-26T10:48:22.643Z,5.85
2022-11-26T10:51:15.328Z,11.43
2022-11-26T10:53:49.647Z,15.13
2022-11-26T10:56:24.378Z,9.70
2022-11-26T10:58:54.237Z,12.15
2022-11-26T11:01:22.930Z,9.95
2022-11-26T11:04:13.601Z,9.35
2022-11-26T11:06:43.988Z,5.03
2022-11-26T11:09:38.571Z,7.50
2022-11-26T11:12:20.155Z,7.57
2022-11-26T11:14:50.691Z,6.50
2022-11-26T11:17:35.433Z,11.45
2022-11-26T11:20:16.666Z,13.45
2022-11-26T11:22:46.097Z,9.98
2022-11-26T11:25:26.608Z,9.63
2022-11-26T11:28:02.201Z,10.98
2022-11-26T11:30:33.816Z,11.27
2022-11-26T11:33:31.755Z,14.27
2022-11-26T11:36:03.551Z,8.52
2022-11-26T11:38:46.608Z,11.65
2022-11-26T11:41:27.187Z,12.05
2022-11-26T11:44:27.445Z,15.15
2022-11-26T11:47:02.355Z,12.85
2022-11-26T11:50:03.613Z,14.43
2022-11-26T11:53:00.015Z,11.95
2022-11-26T11:55:47.188Z,12.00
2022-11-26T11:58:25.900Z,13.45
2022-11-26T12:01:22.453Z,10.00
2022-11-26T12:04:26.982Z,16.80
2022-11-26T12:06:55.168Z,16.05
2022-11-26T12:09:43.207Z,11.18
2022-11-26T12:12:32.232Z,13.55
2022-11-26T12:15:18.343Z,18.73
2022-11-26T12:18:02.175Z,12.77
2022-11-26T12:20:45.086Z,16.67
2022-11-26T12:23:35.106Z,16.17
2022-11-26T12:26:18.890Z,10.05
2022-11-26T12:29:02.635Z,12.45
2022-11-26T12:31:42.561Z,12.27
2022-11-26T12:34:26.450Z,11.15
2022-11-26T12:36:59.931Z,19.42
2022-11-26T12:39:53.952Z,12.10
2022-11-26T12:42:26.828Z,13.02
2022-11-26T12:44:58.027Z,13.35
2022-11-26T12:47:30.773Z,12.27
2022-11-26T12:50:17.640Z,11.20
2022-11-26T12:53:04.599Z,13.35
2022-11-26T12:55:59.010Z,16.45
2022-11-26T12:58:54.440Z,15.15
2022-11-26T13:01:24.271Z,8.45
2022-11-26T13:04:08.365Z,18.08
2022-11-26T13:07:20.507Z,9.50
2022-11-26T13:10:07.171Z,18.35
2022-11-26T13:13:06.676Z,21.67
2022-11-26T13:15:42.225Z,10.20
2022-11-26T13:18:21.021Z,10.95
2022-11-26T13:21:10.175Z,10.57
2022-11-26T13:24:03.734Z,8.10
2022-11-26T13:26:55.332Z,9.65
2022-11-26T13:29:44.123Z,13.38
2022-11-26T13:32:49.823Z,8.05
2022-11-26T13:35:57.564Z,10.52
2022-11-26T13:38:46.175Z,10.02
2022-11-26T13:41:32.541Z,13.55
2022-11-26T13:44:20.517Z,15.75
2022-11-26T13:46:48.662Z,15.55
2022-11-26T13:49:26.360Z,23.52
2022-11-26T13:52:10.375Z,16.98
2022-11-26T13:54:47.805Z,12.45
2022-11-26T13:57:25.778Z,13.95
2022-11-26T13:59:56.577Z,15.02
2022-11-26T14:02:33.970Z,16.60
2022-11-26T14:05:05.814Z,25.75
2022-11-26T14:07:34.299Z,16.60
2022-11-26T14:10:06.018Z,14.05
2022-11-26T14:13:02.459Z,15.35
2022-11-26T14:15:42.899Z,10.70
2022-11-26T14:18:15.656Z,14.55
2022-11-26T14:21:13.818Z,11.00
2022-11-26T14:23:43.719Z,15.43
2022-11-26T14:26:31.710Z,16.23
2022-11-26T14:29:13.877Z,14.07
2022-11-26T14:31:48.174Z,13.30
2022-11-26T14:34:42.917Z,11.88
2022-11-26T14:37:20.213Z,15.32
2022-11-26T14:40:00.018Z,15.25
2022-11-26T14:42:29.620Z,10.82
2022-11-26T14:45:26.037Z,20.60
2022-11-26T14:47:54.497Z,28.23
2022-11-26T14:50:24.468Z,28.00
2022-11-26T14:53:05.823Z,27.37
2022-11-26T14:55:35.038Z,27.67
2022-11-26T14:58:13.764Z,19.92
2022-11-26T15:00:42.457Z,39.63
2022-11-26T15:03:24.671Z,27.37
2022-11-26T15:05:53.228Z,17.52
2022-11-26T15:08:25.344Z,19.80
2022-11-26T15:11:06.521Z,10.05
2022-11-26T15:13:47.632Z,14.10
2022-11-26T15:16:38.161Z,10.02
2022-11-26T15:19:07.380Z,29.20
2022-11-26T15:21:35.806Z,11.02
2022-11-26T15:24:09.227Z,19.58
2022-11-26T15:26:38.396Z,20.33
2022-11-26T15:29:31.524Z,25.37
2022-11-26T15:32:00.158Z,9.05
2022-11-26T15:34:29.435Z,8.95
2022-11-26T15:36:57.594Z,8.90
2022-11-26T15:39:29.471Z,5.07
2022-11-26T15:42:08.142Z,8.05
2022-11-26T15:44:42.432Z,5.80
2022-11-26T15:47:20.200Z,5.70
2022-11-26T15:49:54.909Z,7.00
2022-11-26T15:52:27.728Z,5.22
2022-11-26T15:55:18.523Z,6.28
2022-11-26T15:57:51.431Z,11.77
2022-11-26T16:00:32.635Z,17.75
2022-11-26T16:03:00.984Z,13.00
2022-11-26T16:05:39.402Z,12.23
2022-11-26T16:08:30.386Z,22.92
2022-11-26T16:11:19.501Z,30.00
2022-11-26T16:13:48.022Z,27.30
2022-11-26T16:16:21.467Z,28.27
2022-11-26T16:18:58.953Z,23.70
2022-11-26T16:21:29.940Z,22.73
2022-11-26T16:24:19.499Z,17.83
2022-11-26T16:26:57.516Z,16.90
2022-11-26T16:29:26.879Z,24.25
2022-11-26T16:31:56.273Z,31.17
2022-11-26T16:34:27.817Z,32.45
2022-11-26T16:37:02.136Z,43.17
2022-11-26T16:39:37.514Z,31.10
2022-11-26T16:42:22.053Z,25.05
2022-11-26T16:44:50.823Z,23.62
2022-11-26T16:47:26.573Z,24.25
2022-11-26T16:49:55.646Z,22.48
2022-11-26T16:52:24.513Z,20.52
2022-11-26T16:54:52.907Z,24.95
2022-11-26T16:57:23.963Z,19.25
2022-11-26T16:59:58.358Z,15.95
2022-11-26T17:02:26.762Z,11.25
2022-11-26T17:04:55.676Z,13.68
2022-11-26T17:07:30.027Z,10.63
2022-11-26T17:09:58.789Z,11.27
2022-11-26T17:12:27.183Z,13.57
2022-11-26T17:14:55.472Z,12.30
2022-11-26T17:17:30.438Z,14.73
2022-11-26T17:19:58.687Z,14.57
2022-11-26T17:22:28.689Z,13.30
2022-11-26T17:24:56.909Z,14.23
2022-11-26T17:27:26.632Z,14.05
2022-11-26T17:29:57.569Z,14.30
2022-11-26T17:32:26.018Z,9.68
2022-11-26T17:34:54.841Z,11.88
2022-11-26T17:37:28.789Z,18.30
2022-11-26T17:40:00.353Z,9.50
2022-11-26T17:42:32.259Z,12.85
2022-11-26T17:45:05.202Z,6.75
2022-11-26T17:47:33.283Z,9.68
2022-11-26T17:50:01.405Z,3.62
2022-11-26T17:52:30.330Z,8.23
2022-11-26T17:54:58.761Z,6.95
2022-11-26T17:57:28.448Z,5.32
2022-11-26T17:59:57.177Z,6.40
2022-11-26T18:02:30.532Z,5.87
2022-11-26T18:04:58.968Z,8.43
2022-11-26T18:07:27.159Z,10.15
2022-11-26T18:09:57.419Z,7.80
2022-11-26T18:12:28.057Z,5.37
2022-11-26T18:14:57.828Z,4.30
2022-11-26T18:17:26.593Z,7.37
2022-11-26T18:19:55.083Z,5.20
2022-11-26T18:22:25.520Z,4.15
2022-11-26T18:24:57.000Z,6.03
2022-11-26T18:27:28.001Z,3.35
2022-11-26T18:29:56.898Z,4.32
2022-11-26T18:32:24.970Z,5.90
2022-11-26T18:34:53.805Z,4.95
2022-11-26T18:37:22.155Z,4.35
2022-11-26T18:39:50.550Z,3.33
2022-11-26T18:45:10.181Z,5.93
2022-11-26T18:47:38.972Z,15.27
2022-11-26T18:50:08.104Z,17.87
2022-11-26T18:52:36.560Z,11.68
2022-11-26T18:55:07.519Z,10.32
2022-11-26T18:57:36.792Z,6.37
2022-11-26T19:00:06.953Z,5.18
2022-11-26T19:02:36.556Z,6.85
2022-11-26T19:05:05.462Z,5.95
2022-11-26T19:07:33.885Z,8.98
2022-11-26T19:10:02.677Z,7.43
2022-11-26T19:12:31.532Z,9.73
2022-11-26T19:15:00.122Z,9.27
2022-11-26T19:17:28.881Z,6.22
2022-11-26T19:19:57.246Z,6.75
2022-11-26T19:22:25.968Z,7.53
2022-11-26T19:24:54.958Z,7.45
2022-11-26T19:27:23.214Z,5.62
2022-11-26T19:29:51.881Z,9.40
2022-11-26T19:32:20.594Z,7.60
2022-11-26T19:34:48.918Z,14.05
2022-11-26T19:37:17.291Z,12.23
2022-11-26T19:39:47.483Z,14.15
2022-11-26T19:42:15.863Z,13.82
2022-11-26T19:44:44.710Z,14.48
2022-11-26T19:47:13.409Z,9.55
2022-11-26T19:49:42.161Z,10.90
2022-11-26T19:52:10.439Z,13.20
2022-11-26T19:54:38.998Z,9.55
2022-11-26T19:57:07.403Z,21.20
2022-11-26T19:59:35.651Z,20.17
2022-11-26T20:02:04.204Z,21.05
2022-11-26T20:04:32.929Z,15.35
2022-11-26T20:07:01.259Z,19.00
2022-11-26T20:09:29.708Z,19.92
2022-11-26T20:11:58.820Z,31.02
2022-11-26T20:14:28.218Z,20.37
2022-11-26T20:17:01.270Z,20.33
2022-11-26T20:19:30.380Z,23.80
2022-11-26T20:21:58.758Z,19.35
2022-11-26T20:24:28.542Z,15.95
2022-11-26T20:26:57.349Z,19.40
2022-11-26T20:29:25.714Z,14.60
2022-11-26T20:31:54.238Z,18.65
2022-11-26T20:34:26.131Z,13.73
2022-11-26T20:36:54.280Z,18.40
2022-11-26T20:39:24.280Z,14.73
2022-11-26T20:41:52.650Z,14.82
2022-11-26T20:44:23.116Z,17.65
2022-11-26T20:46:52.183Z,24.73
2022-11-26T20:49:20.495Z,13.68
2022-11-26T20:51:49.073Z,14.85
2022-11-26T20:54:18.288Z,14.25
2022-11-26T20:56:46.720Z,16.00
2022-11-26T20:59:15.038Z,27.42
2022-11-26T21:01:43.894Z,22.35
2022-11-26T21:04:12.780Z,17.92
2022-11-26T21:06:43.864Z,19.77
2022-11-26T21:09:13.621Z,12.88
2022-11-26T21:11:41.646Z,16.62
2022-11-26T21:14:14.816Z,14.30
2022-11-26T21:16:44.509Z,21.57
2022-11-26T21:19:13.262Z,28.08
2022-11-26T21:21:42.131Z,18.10
2022-11-26T21:24:11.361Z,20.23
2022-11-26T21:26:39.614Z,19.60
2022-11-26T21:29:07.791Z,11.52
2022-11-26T21:31:36.527Z,13.05
2022-11-26T21:34:06.862Z,14.15
2022-11-26T21:36:36.488Z,14.25
2022-11-26T21:39:05.131Z,19.52
2022-11-26T21:41:33.860Z,13.80
2022-11-26T21:44:04.082Z,13.30
2022-11-26T21:46:38.286Z,15.68
2022-11-26T21:49:11.465Z,29.08
2022-11-26T21:51:40.953Z,28.87
2022-11-26T21:54:09.633Z,26.25
2022-11-26T21:56:37.940Z,24.55
2022-11-26T21:59:06.663Z,17.37
2022-11-26T22:01:36.777Z,24.50
2022-11-26T22:04:10.450Z,21.20
2022-11-26T22:06:38.935Z,30.52
2022-11-26T22:09:08.648Z,25.77
2022-11-26T22:11:39.592Z,30.17
2022-11-26T22:14:08.841Z,18.10
2022-11-26T22:16:36.939Z,20.75
2022-11-26T22:19:05.566Z,17.73
2022-11-26T22:21:39.926Z,19.77
2022-11-26T22:24:12.103Z,14.15
2022-11-26T22:26:41.194Z,21.67
2022-11-26T22:29:14.453Z,18.23
2022-11-26T22:31:43.320Z,19.40
2022-11-26T22:34:14.241Z,15.98
2022-11-26T22:36:43.964Z,11.88
2022-11-26T22:39:15.013Z,12.25
2022-11-26T22:41:45.164Z,15.90
2022-11-26T22:44:14.144Z,10.48
2022-11-26T22:46:42.816Z,10.73
2022-11-26T22:49:14.230Z,31.10
2022-11-26T22:51:42.432Z,22.62
2022-11-26T22:54:13.528Z,24.40
2022-11-26T22:56:42.028Z,20.05
2022-11-26T22:59:13.017Z,21.95
2022-11-26T23:01:41.536Z,17.73
2022-11-26T23:04:10.728Z,17.87
2022-11-26T23:06:39.783Z,11.45
2022-11-26T23:09:10.127Z,14.00
2022-11-26T23:11:41.122Z,14.85
2022-11-26T23:14:11.861Z,14.98
2022-11-26T23:16:42.061Z,13.98
2022-11-26T23:19:16.351Z,15.60
2022-11-26T23:21:46.854Z,15.57
2022-11-26T23:24:16.051Z,16.42
2022-11-26T23:26:45.441Z,13.13
2022-11-26T23:29:14.389Z,12.60
2022-11-26T23:31:43.956Z,11.98
2022-11-26T23:34:13.469Z,14.93
2022-11-26T23:36:41.895Z,15.55
2022-11-26T23:39:11.977Z,13.82
2022-11-26T23:41:41.053Z,20.88
2022-11-26T23:44:09.406Z,10.27
2022-11-26T23:46:37.585Z,14.35
2022-11-26T23:49:06.062Z,14.38
2022-11-26T23:51:35.121Z,17.55
2022-11-26T23:54:03.497Z,12.35
2022-11-26T23:56:34.250Z,16.87
2022-11-26T23:59:04.449Z,21.58
